sensor_id;sensor_type;location;lat;lon;timestamp;temperature;humidity
13496;DHT22;6820;49.374;8.452;2023-05-18T00:01:05;12.16;99.99
13496;DHT22;6820;49.374;8.452;2023-05-18T00:05:07;12.19;99.99
13496;DHT22;6820;49.374;8.452;2023-05-18T00:09:10;12.16;99.99
13496;DHT22;6820;49.374;8.452;2023-05-18T00:13:12;12.07;99.99
13496;DHT22;6820;49.374;8.452;2023-05-18T00:17:13;11.94;99.99
13496;DHT22;6820;49.374;8.452;2023-05-18T00:21:16;11.88;99.99
13496;DHT22;6820;49.374;8.452;2023-05-18T00:25:18;11.74;99.99
13496;DHT22;6820;49.374;8.452;2023-05-18T00:29:19;11.79;99.99
13496;DHT22;6820;49.374;8.452;2023-05-18T00:33:21;11.81;99.99
13496;DHT22;6820;49.374;8.452;2023-05-18T00:37:23;11.78;99.99
13496;DHT22;6820;49.374;8.452;2023-05-18T00:41:25;11.70;99.99
13496;DHT22;6820;49.374;8.452;2023-05-18T00:45:28;11.62;99.99
13496;DHT22;6820;49.374;8.452;2023-05-18T00:49:30;11.54;99.99
13496;DHT22;6820;49.374;8.452;2023-05-18T00:53:31;11.51;99.99
13496;DHT22;6820;49.374;8.452;2023-05-18T00:57:34;11.45;99.99
13496;DHT22;6820;49.374;8.452;2023-05-18T01:01:36;11.45;99.99
13496;DHT22;6820;49.374;8.452;2023-05-18T01:05:44;11.44;99.99
13496;DHT22;6820;49.374;8.452;2023-05-18T01:09:45;11.38;99.99
13496;DHT22;6820;49.374;8.452;2023-05-18T01:13:55;11.33;99.99
13496;DHT22;6820;49.374;8.452;2023-05-18T01:22:32;11.23;99.99
13496;DHT22;6820;49.374;8.452;2023-05-18T01:26:42;11.11;99.99
13496;DHT22;6820;49.374;8.452;2023-05-18T01:30:47;11.05;99.99
13496;DHT22;6820;49.374;8.452;2023-05-18T01:34:49;10.98;99.99
13496;DHT22;6820;49.374;8.452;2023-05-18T01:38:50;10.95;99.99
13496;DHT22;6820;49.374;8.452;2023-05-18T01:42:54;10.87;99.99
13496;DHT22;6820;49.374;8.452;2023-05-18T01:47:03;10.86;99.99
13496;DHT22;6820;49.374;8.452;2023-05-18T01:51:11;10.86;99.99
13496;DHT22;6820;49.374;8.452;2023-05-18T01:55:16;10.84;99.99
13496;DHT22;6820;49.374;8.452;2023-05-18T01:59:19;10.72;99.99
13496;DHT22;6820;49.374;8.452;2023-05-18T02:03:22;10.68;99.99
13496;DHT22;6820;49.374;8.452;2023-05-18T02:07:24;10.63;99.99
13496;DHT22;6820;49.374;8.452;2023-05-18T02:11:26;10.55;99.99
13496;DHT22;6820;49.374;8.452;2023-05-18T02:15:28;10.58;99.99
13496;DHT22;6820;49.374;8.452;2023-05-18T02:19:30;10.62;99.99
13496;DHT22;6820;49.374;8.452;2023-05-18T02:23:32;10.57;99.99
13496;DHT22;6820;49.374;8.452;2023-05-18T02:27:34;10.43;99.99
13496;DHT22;6820;49.374;8.452;2023-05-18T02:31:37;10.28;99.99
13496;DHT22;6820;49.374;8.452;2023-05-18T02:35:39;10.25;99.99
13496;DHT22;6820;49.374;8.452;2023-05-18T02:39:41;10.16;99.99
13496;DHT22;6820;49.374;8.452;2023-05-18T02:43:43;10.09;99.99
13496;DHT22;6820;49.374;8.452;2023-05-18T02:47:45;9.99;99.99
13496;DHT22;6820;49.374;8.452;2023-05-18T02:51:46;10.06;99.99
13496;DHT22;6820;49.374;8.452;2023-05-18T02:55:52;9.92;99.99
13496;DHT22;6820;49.374;8.452;2023-05-18T03:00:02;9.81;99.99
13496;DHT22;6820;49.374;8.452;2023-05-18T03:04:12;9.73;99.99
13496;DHT22;6820;49.374;8.452;2023-05-18T03:08:20;9.70;99.99
13496;DHT22;6820;49.374;8.452;2023-05-18T03:12:27;9.65;99.99
13496;DHT22;6820;49.374;8.452;2023-05-18T03:16:29;9.62;99.99
13496;DHT22;6820;49.374;8.452;2023-05-18T03:20:31;9.58;99.99
13496;DHT22;6820;49.374;8.452;2023-05-18T03:24:33;9.60;99.99
13496;DHT22;6820;49.374;8.452;2023-05-18T03:28:45;9.60;99.99
13496;DHT22;6820;49.374;8.452;2023-05-18T03:32:46;9.58;99.99
13496;DHT22;6820;49.374;8.452;2023-05-18T03:36:49;9.59;99.99
13496;DHT22;6820;49.374;8.452;2023-05-18T03:40:51;9.52;99.99
13496;DHT22;6820;49.374;8.452;2023-05-18T03:44:53;9.32;99.99
13496;DHT22;6820;49.374;8.452;2023-05-18T03:48:55;9.27;99.99
13496;DHT22;6820;49.374;8.452;2023-05-18T03:53:05;9.49;99.99
13496;DHT22;6820;49.374;8.452;2023-05-18T03:57:06;9.45;99.99
13496;DHT22;6820;49.374;8.452;2023-05-18T04:01:08;9.38;99.99
13496;DHT22;6820;49.374;8.452;2023-05-18T04:05:10;9.34;99.99
13496;DHT22;6820;49.374;8.452;2023-05-18T04:09:12;9.34;99.99
13496;DHT22;6820;49.374;8.452;2023-05-18T04:13:17;9.27;99.99
13496;DHT22;6820;49.374;8.452;2023-05-18T04:17:19;9.23;99.99
13496;DHT22;6820;49.374;8.452;2023-05-18T04:21:26;9.23;99.99
13496;DHT22;6820;49.374;8.452;2023-05-18T04:25:27;9.23;99.99
13496;DHT22;6820;49.374;8.452;2023-05-18T04:29:29;9.23;99.99
13496;DHT22;6820;49.374;8.452;2023-05-18T04:33:32;9.27;99.99
13496;DHT22;6820;49.374;8.452;2023-05-18T04:37:34;9.26;99.99
13496;DHT22;6820;49.374;8.452;2023-05-18T04:41:36;9.20;99.99
13496;DHT22;6820;49.374;8.452;2023-05-18T04:45:38;9.16;99.99
13496;DHT22;6820;49.374;8.452;2023-05-18T04:49:41;9.16;99.99
13496;DHT22;6820;49.374;8.452;2023-05-18T04:53:43;9.16;99.99
13496;DHT22;6820;49.374;8.452;2023-05-18T04:57:46;9.17;99.99
13496;DHT22;6820;49.374;8.452;2023-05-18T05:01:48;9.19;99.99
13496;DHT22;6820;49.374;8.452;2023-05-18T05:05:50;9.23;99.99
13496;DHT22;6820;49.374;8.452;2023-05-18T05:09:51;9.20;99.99
13496;DHT22;6820;49.374;8.452;2023-05-18T05:13:53;9.22;99.99
13496;DHT22;6820;49.374;8.452;2023-05-18T05:17:55;9.24;99.99
13496;DHT22;6820;49.374;8.452;2023-05-18T05:21:58;9.26;99.99
13496;DHT22;6820;49.374;8.452;2023-05-18T05:26:00;9.34;99.99
13496;DHT22;6820;49.374;8.452;2023-05-18T05:30:03;9.42;99.99
13496;DHT22;6820;49.374;8.452;2023-05-18T05:34:08;9.52;99.99
13496;DHT22;6820;49.374;8.452;2023-05-18T05:38:12;9.58;99.99
13496;DHT22;6820;49.374;8.452;2023-05-18T05:42:14;9.68;99.99
13496;DHT22;6820;49.374;8.452;2023-05-18T05:46:16;9.75;99.99
13496;DHT22;6820;49.374;8.452;2023-05-18T05:50:18;9.86;99.99
13496;DHT22;6820;49.374;8.452;2023-05-18T05:54:22;10.02;99.99
13496;DHT22;6820;49.374;8.452;2023-05-18T05:58:24;10.14;99.99
13496;DHT22;6820;49.374;8.452;2023-05-18T06:02:31;10.26;99.99
13496;DHT22;6820;49.374;8.452;2023-05-18T06:06:38;10.39;99.99
13496;DHT22;6820;49.374;8.452;2023-05-18T06:10:40;10.52;99.99
13496;DHT22;6820;49.374;8.452;2023-05-18T06:14:43;10.65;99.99
13496;DHT22;6820;49.374;8.452;2023-05-18T06:18:45;10.73;99.99
13496;DHT22;6820;49.374;8.452;2023-05-18T06:22:47;10.90;99.99
13496;DHT22;6820;49.374;8.452;2023-05-18T06:27:12;11.03;99.99
13496;DHT22;6820;49.374;8.452;2023-05-18T06:31:21;11.19;99.99
13496;DHT22;6820;49.374;8.452;2023-05-18T06:35:35;11.36;99.99
13496;DHT22;6820;49.374;8.452;2023-05-18T06:39:37;11.49;99.99
13496;DHT22;6820;49.374;8.452;2023-05-18T06:43:39;11.63;99.99
13496;DHT22;6820;49.374;8.452;2023-05-18T06:47:52;11.78;99.99
13496;DHT22;6820;49.374;8.452;2023-05-18T06:51:54;11.93;99.99
13496;DHT22;6820;49.374;8.452;2023-05-18T06:55:56;12.11;99.99
13496;DHT22;6820;49.374;8.452;2023-05-18T06:59:57;12.25;99.99
13496;DHT22;6820;49.374;8.452;2023-05-18T07:03:59;12.38;99.99
13496;DHT22;6820;49.374;8.452;2023-05-18T07:08:01;12.56;99.99
13496;DHT22;6820;49.374;8.452;2023-05-18T07:12:05;12.76;99.99
13496;DHT22;6820;49.374;8.452;2023-05-18T07:16:07;12.91;99.99
13496;DHT22;6820;49.374;8.452;2023-05-18T07:20:09;13.03;99.99
13496;DHT22;6820;49.374;8.452;2023-05-18T07:24:11;13.10;99.99
13496;DHT22;6820;49.374;8.452;2023-05-18T07:28:12;13.25;99.99
13496;DHT22;6820;49.374;8.452;2023-05-18T07:32:14;13.43;99.99
13496;DHT22;6820;49.374;8.452;2023-05-18T07:36:16;13.57;99.99
13496;DHT22;6820;49.374;8.452;2023-05-18T07:40:17;13.71;99.99
13496;DHT22;6820;49.374;8.452;2023-05-18T07:44:19;13.80;99.99
13496;DHT22;6820;49.374;8.452;2023-05-18T07:48:21;13.94;99.99
13496;DHT22;6820;49.374;8.452;2023-05-18T07:52:22;14.05;99.99
13496;DHT22;6820;49.374;8.452;2023-05-18T07:56:24;14.19;99.99
13496;DHT22;6820;49.374;8.452;2023-05-18T08:00:26;14.29;99.99
13496;DHT22;6820;49.374;8.452;2023-05-18T08:04:28;14.36;99.99
13496;DHT22;6820;49.374;8.452;2023-05-18T08:08:30;14.48;99.99
13496;DHT22;6820;49.374;8.452;2023-05-18T08:12:31;14.57;99.99
13496;DHT22;6820;49.374;8.452;2023-05-18T08:16:33;14.67;99.99
13496;DHT22;6820;49.374;8.452;2023-05-18T08:20:37;14.85;99.99
13496;DHT22;6820;49.374;8.452;2023-05-18T08:24:39;15.03;99.99
13496;DHT22;6820;49.374;8.452;2023-05-18T08:28:41;15.18;99.99
13496;DHT22;6820;49.374;8.452;2023-05-18T08:32:43;15.22;99.99
13496;DHT22;6820;49.374;8.452;2023-05-18T08:36:45;15.22;99.99
13496;DHT22;6820;49.374;8.452;2023-05-18T08:45:39;15.56;99.99
13496;DHT22;6820;49.374;8.452;2023-05-18T08:49:23;15.76;99.99
13496;DHT22;6820;49.374;8.452;2023-05-18T08:53:27;15.85;99.99
13496;DHT22;6820;49.374;8.452;2023-05-18T08:57:30;16.04;99.99
13496;DHT22;6820;49.374;8.452;2023-05-18T09:01:35;16.26;99.99
13496;DHT22;6820;49.374;8.452;2023-05-18T09:05:37;16.63;99.99
13496;DHT22;6820;49.374;8.452;2023-05-18T09:09:41;16.82;99.99
13496;DHT22;6820;49.374;8.452;2023-05-18T09:13:44;17.05;99.99
13496;DHT22;6820;49.374;8.452;2023-05-18T09:17:47;17.27;99.99
13496;DHT22;6820;49.374;8.452;2023-05-18T09:21:48;17.54;99.99
13496;DHT22;6820;49.374;8.452;2023-05-18T09:25:51;17.77;99.99
13496;DHT22;6820;49.374;8.452;2023-05-18T09:29:53;17.81;99.99
13496;DHT22;6820;49.374;8.452;2023-05-18T09:33:57;17.77;99.99
13496;DHT22;6820;49.374;8.452;2023-05-18T09:38:02;17.53;99.99
13496;DHT22;6820;49.374;8.452;2023-05-18T09:42:04;17.68;99.88
13496;DHT22;6820;49.374;8.452;2023-05-18T09:46:06;17.87;99.99
13496;DHT22;6820;49.374;8.452;2023-05-18T09:50:09;18.07;98.88
13496;DHT22;6820;49.374;8.452;2023-05-18T09:54:11;18.13;98.54
13496;DHT22;6820;49.374;8.452;2023-05-18T09:58:13;18.05;98.64
13496;DHT22;6820;49.374;8.452;2023-05-18T10:02:16;17.98;98.24
13496;DHT22;6820;49.374;8.452;2023-05-18T10:06:19;17.74;98.68
13496;DHT22;6820;49.374;8.452;2023-05-18T10:10:27;17.95;99.54
13496;DHT22;6820;49.374;8.452;2023-05-18T10:14:31;18.09;97.67
13496;DHT22;6820;49.374;8.452;2023-05-18T10:18:37;18.19;98.03
13496;DHT22;6820;49.374;8.452;2023-05-18T10:22:39;18.25;96.62
13496;DHT22;6820;49.374;8.452;2023-05-18T10:26:42;18.20;96.62
13496;DHT22;6820;49.374;8.452;2023-05-18T10:30:45;18.21;97.03
13496;DHT22;6820;49.374;8.452;2023-05-18T10:34:47;18.32;96.12
13496;DHT22;6820;49.374;8.452;2023-05-18T10:38:50;18.51;96.58
13496;DHT22;6820;49.374;8.452;2023-05-18T10:42:52;18.53;95.83
13496;DHT22;6820;49.374;8.452;2023-05-18T10:46:58;18.76;94.92
13496;DHT22;6820;49.374;8.452;2023-05-18T10:51:00;18.93;94.17
13496;DHT22;6820;49.374;8.452;2023-05-18T10:55:06;18.97;93.82
13496;DHT22;6820;49.374;8.452;2023-05-18T10:59:09;18.94;94.23
13496;DHT22;6820;49.374;8.452;2023-05-18T11:03:12;19.02;94.53
13496;DHT22;6820;49.374;8.452;2023-05-18T11:07:15;19.23;94.02
13496;DHT22;6820;49.374;8.452;2023-05-18T11:11:17;19.35;92.97
13496;DHT22;6820;49.374;8.452;2023-05-18T11:15:43;19.47;91.97
13496;DHT22;6820;49.374;8.452;2023-05-18T11:28:23;19.67;92.83
13496;DHT22;6820;49.374;8.452;2023-05-18T11:32:26;19.85;91.99
13496;DHT22;6820;49.374;8.452;2023-05-18T11:36:31;19.85;92.18
13496;DHT22;6820;49.374;8.452;2023-05-18T11:40:49;19.95;92.38
13496;DHT22;6820;49.374;8.452;2023-05-18T11:44:54;19.79;93.65
13496;DHT22;6820;49.374;8.452;2023-05-18T11:48:56;20.07;93.09
13496;DHT22;6820;49.374;8.452;2023-05-18T11:53:03;19.98;92.04
13496;DHT22;6820;49.374;8.452;2023-05-18T11:57:05;20.04;91.14
13496;DHT22;6820;49.374;8.452;2023-05-18T12:01:07;20.41;91.34
13496;DHT22;6820;49.374;8.452;2023-05-18T12:05:12;20.94;91.45
13496;DHT22;6820;49.374;8.452;2023-05-18T12:09:14;21.16;88.66
13496;DHT22;6820;49.374;8.452;2023-05-18T12:13:17;21.19;89.72
13496;DHT22;6820;49.374;8.452;2023-05-18T12:17:18;21.34;90.12
13496;DHT22;6820;49.374;8.452;2023-05-18T12:21:21;21.11;88.57
13496;DHT22;6820;49.374;8.452;2023-05-18T12:25:24;21.05;89.02
13496;DHT22;6820;49.374;8.452;2023-05-18T12:29:27;21.56;89.32
13496;DHT22;6820;49.374;8.452;2023-05-18T12:33:28;21.86;87.73
13496;DHT22;6820;49.374;8.452;2023-05-18T12:37:30;21.83;87.99
13496;DHT22;6820;49.374;8.452;2023-05-18T12:41:45;21.79;90.79
13496;DHT22;6820;49.374;8.452;2023-05-18T12:45:47;21.30;88.69
13496;DHT22;6820;49.374;8.452;2023-05-18T12:49:49;21.70;88.18
13496;DHT22;6820;49.374;8.452;2023-05-18T12:53:50;22.11;89.14
13496;DHT22;6820;49.374;8.452;2023-05-18T12:58:05;22.66;86.35
13496;DHT22;6820;49.374;8.452;2023-05-18T13:02:25;22.48;86.07
13496;DHT22;6820;49.374;8.452;2023-05-18T13:06:28;22.82;87.76
13496;DHT22;6820;49.374;8.452;2023-05-18T13:10:29;22.69;87.52
13496;DHT22;6820;49.374;8.452;2023-05-18T13:14:36;22.12;87.12
13496;DHT22;6820;49.374;8.452;2023-05-18T13:18:44;22.45;87.85
13496;DHT22;6820;49.374;8.452;2023-05-18T13:22:48;22.69;86.61
13496;DHT22;6820;49.374;8.452;2023-05-18T13:26:50;22.56;85.13
13496;DHT22;6820;49.374;8.452;2023-05-18T13:30:52;22.76;85.07
13496;DHT22;6820;49.374;8.452;2023-05-18T13:34:54;22.91;85.13
13496;DHT22;6820;49.374;8.452;2023-05-18T13:38:55;22.78;84.33
13496;DHT22;6820;49.374;8.452;2023-05-18T13:42:58;23.06;84.03
13496;DHT22;6820;49.374;8.452;2023-05-18T13:46:59;23.53;83.39
13496;DHT22;6820;49.374;8.452;2023-05-18T13:51:01;23.60;84.70
13496;DHT22;6820;49.374;8.452;2023-05-18T13:55:03;23.81;83.21
13496;DHT22;6820;49.374;8.452;2023-05-18T13:59:06;23.60;81.38
13496;DHT22;6820;49.374;8.452;2023-05-18T14:03:08;24.04;82.92
13496;DHT22;6820;49.374;8.452;2023-05-18T14:07:10;23.99;82.54
13496;DHT22;6820;49.374;8.452;2023-05-18T14:11:12;24.12;83.03
13496;DHT22;6820;49.374;8.452;2023-05-18T14:15:14;24.21;83.00
13496;DHT22;6820;49.374;8.452;2023-05-18T14:19:16;24.49;80.71
13496;DHT22;6820;49.374;8.452;2023-05-18T14:23:17;24.75;80.66
13496;DHT22;6820;49.374;8.452;2023-05-18T14:27:19;24.82;78.54
13496;DHT22;6820;49.374;8.452;2023-05-18T14:31:21;24.92;79.24
13496;DHT22;6820;49.374;8.452;2023-05-18T14:35:23;24.94;79.99
13496;DHT22;6820;49.374;8.452;2023-05-18T14:39:24;25.19;79.39
13496;DHT22;6820;49.374;8.452;2023-05-18T14:43:26;25.02;78.86
13496;DHT22;6820;49.374;8.452;2023-05-18T14:47:28;25.11;78.11
13496;DHT22;6820;49.374;8.452;2023-05-18T14:51:30;25.22;77.97
13496;DHT22;6820;49.374;8.452;2023-05-18T14:55:31;25.45;76.87
13496;DHT22;6820;49.374;8.452;2023-05-18T14:59:33;25.26;76.84
13496;DHT22;6820;49.374;8.452;2023-05-18T15:03:35;24.77;79.46
13496;DHT22;6820;49.374;8.452;2023-05-18T15:07:36;24.48;78.14
13496;DHT22;6820;49.374;8.452;2023-05-18T15:11:38;24.12;77.68
13496;DHT22;6820;49.374;8.452;2023-05-18T15:15:40;24.30;77.62
13496;DHT22;6820;49.374;8.452;2023-05-18T15:19:42;24.80;76.72
13496;DHT22;6820;49.374;8.452;2023-05-18T15:23:44;24.99;75.36
13496;DHT22;6820;49.374;8.452;2023-05-18T15:27:46;24.71;76.81
13496;DHT22;6820;49.374;8.452;2023-05-18T15:31:49;24.33;77.75
13496;DHT22;6820;49.374;8.452;2023-05-18T15:35:52;24.34;79.21
13496;DHT22;6820;49.374;8.452;2023-05-18T15:39:53;24.41;78.88
13496;DHT22;6820;49.374;8.452;2023-05-18T15:43:55;23.52;78.58
13496;DHT22;6820;49.374;8.452;2023-05-18T15:47:56;23.06;80.32
13496;DHT22;6820;49.374;8.452;2023-05-18T15:51:58;23.37;79.80
13496;DHT22;6820;49.374;8.452;2023-05-18T15:56:00;23.93;79.06
13496;DHT22;6820;49.374;8.452;2023-05-18T16:00:02;24.12;79.45
13496;DHT22;6820;49.374;8.452;2023-05-18T16:04:11;24.53;78.91
13496;DHT22;6820;49.374;8.452;2023-05-18T16:08:13;24.06;79.37
13496;DHT22;6820;49.374;8.452;2023-05-18T16:12:15;23.41;80.84
13496;DHT22;6820;49.374;8.452;2023-05-18T16:16:17;23.74;81.02
13496;DHT22;6820;49.374;8.452;2023-05-18T16:20:19;23.64;80.08
13496;DHT22;6820;49.374;8.452;2023-05-18T16:24:21;23.78;78.89
13496;DHT22;6820;49.374;8.452;2023-05-18T16:28:23;24.05;78.59
13496;DHT22;6820;49.374;8.452;2023-05-18T16:32:24;23.99;79.65
13496;DHT22;6820;49.374;8.452;2023-05-18T16:36:27;23.25;79.65
13496;DHT22;6820;49.374;8.452;2023-05-18T16:40:31;22.82;80.56
13496;DHT22;6820;49.374;8.452;2023-05-18T16:44:33;22.46;81.93
13496;DHT22;6820;49.374;8.452;2023-05-18T16:48:36;22.17;82.67
13496;DHT22;6820;49.374;8.452;2023-05-18T16:52:38;21.98;83.25
13496;DHT22;6820;49.374;8.452;2023-05-18T16:56:39;21.71;83.89
13496;DHT22;6820;49.374;8.452;2023-05-18T17:00:41;21.67;84.43
13496;DHT22;6820;49.374;8.452;2023-05-18T17:04:43;21.51;84.63
13496;DHT22;6820;49.374;8.452;2023-05-18T17:08:50;21.71;84.77
13496;DHT22;6820;49.374;8.452;2023-05-18T17:12:57;21.90;84.53
13496;DHT22;6820;49.374;8.452;2023-05-18T17:17:00;21.79;85.49
13496;DHT22;6820;49.374;8.452;2023-05-18T17:21:01;21.64;85.69
13496;DHT22;6820;49.374;8.452;2023-05-18T17:25:03;21.52;85.63
13496;DHT22;6820;49.374;8.452;2023-05-18T17:29:05;21.43;85.03
13496;DHT22;6820;49.374;8.452;2023-05-18T17:33:07;21.33;85.77
13496;DHT22;6820;49.374;8.452;2023-05-18T17:37:10;21.26;86.37
13496;DHT22;6820;49.374;8.452;2023-05-18T17:41:12;20.98;85.31
13496;DHT22;6820;49.374;8.452;2023-05-18T17:45:13;20.85;86.55
13496;DHT22;6820;49.374;8.452;2023-05-18T17:49:16;20.64;86.66
13496;DHT22;6820;49.374;8.452;2023-05-18T17:53:17;20.34;87.10
13496;DHT22;6820;49.374;8.452;2023-05-18T17:57:21;20.26;87.44
13496;DHT22;6820;49.374;8.452;2023-05-18T18:01:23;20.16;87.88
13496;DHT22;6820;49.374;8.452;2023-05-18T18:05:25;20.22;88.18
13496;DHT22;6820;49.374;8.452;2023-05-18T18:09:27;20.20;88.59
13496;DHT22;6820;49.374;8.452;2023-05-18T18:13:28;20.05;88.59
13496;DHT22;6820;49.374;8.452;2023-05-18T18:17:30;19.95;89.23
13496;DHT22;6820;49.374;8.452;2023-05-18T18:21:32;19.87;89.33
13496;DHT22;6820;49.374;8.452;2023-05-18T18:25:33;19.70;89.03
13496;DHT22;6820;49.374;8.452;2023-05-18T18:29:35;19.60;89.78
13496;DHT22;6820;49.374;8.452;2023-05-18T18:33:37;19.46;89.82
13496;DHT22;6820;49.374;8.452;2023-05-18T18:37:38;19.38;90.42
13496;DHT22;6820;49.374;8.452;2023-05-18T18:41:40;19.25;90.66
13496;DHT22;6820;49.374;8.452;2023-05-18T18:45:42;19.10;90.66
13496;DHT22;6820;49.374;8.452;2023-05-18T18:49:44;18.94;91.01
13496;DHT22;6820;49.374;8.452;2023-05-18T18:53:46;18.89;91.31
13496;DHT22;6820;49.374;8.452;2023-05-18T18:57:47;18.75;92.06
13496;DHT22;6820;49.374;8.452;2023-05-18T19:01:49;18.66;91.96
13496;DHT22;6820;49.374;8.452;2023-05-18T19:05:51;18.51;92.60
13496;DHT22;6820;49.374;8.452;2023-05-18T19:09:52;18.42;92.91
13496;DHT22;6820;49.374;8.452;2023-05-18T19:13:54;18.31;93.05
13496;DHT22;6820;49.374;8.452;2023-05-18T19:17:56;18.25;93.05
13496;DHT22;6820;49.374;8.452;2023-05-18T19:21:58;18.21;93.10
13496;DHT22;6820;49.374;8.452;2023-05-18T19:26:00;18.11;93.60
13496;DHT22;6820;49.374;8.452;2023-05-18T19:30:02;18.05;93.40
13496;DHT22;6820;49.374;8.452;2023-05-18T19:34:05;18.02;93.70
13496;DHT22;6820;49.374;8.452;2023-05-18T19:38:07;18.02;93.30
13496;DHT22;6820;49.374;8.452;2023-05-18T19:42:08;18.02;93.80
13496;DHT22;6820;49.374;8.452;2023-05-18T19:46:10;17.98;94.00
13496;DHT22;6820;49.374;8.452;2023-05-18T19:50:12;17.92;95.46
13496;DHT22;6820;49.374;8.452;2023-05-18T19:54:14;17.86;96.47
13496;DHT22;6820;49.374;8.452;2023-05-18T19:58:15;17.80;97.17
13496;DHT22;6820;49.374;8.452;2023-05-18T20:02:17;17.80;97.17
13496;DHT22;6820;49.374;8.452;2023-05-18T20:06:19;17.66;97.47
13496;DHT22;6820;49.374;8.452;2023-05-18T20:10:21;17.62;97.62
13496;DHT22;6820;49.374;8.452;2023-05-18T20:14:24;17.58;98.02
13496;DHT22;6820;49.374;8.452;2023-05-18T20:18:27;17.46;98.63
13496;DHT22;6820;49.374;8.452;2023-05-18T20:22:29;17.43;97.56
13496;DHT22;6820;49.374;8.452;2023-05-18T20:26:31;17.38;98.47
13496;DHT22;6820;49.374;8.452;2023-05-18T20:30:33;17.30;98.68
13496;DHT22;6820;49.374;8.452;2023-05-18T20:34:35;17.25;99.43
13496;DHT22;6820;49.374;8.452;2023-05-18T20:38:36;17.21;99.63
13496;DHT22;6820;49.374;8.452;2023-05-18T20:42:39;17.12;99.33
13496;DHT22;6820;49.374;8.452;2023-05-18T20:46:41;17.03;99.99
13496;DHT22;6820;49.374;8.452;2023-05-18T20:50:43;16.96;99.99
13496;DHT22;6820;49.374;8.452;2023-05-18T20:54:45;16.90;99.78
13496;DHT22;6820;49.374;8.452;2023-05-18T20:58:47;16.84;99.99
13496;DHT22;6820;49.374;8.452;2023-05-18T21:02:50;16.78;99.99
13496;DHT22;6820;49.374;8.452;2023-05-18T21:06:52;16.78;99.99
13496;DHT22;6820;49.374;8.452;2023-05-18T21:10:54;16.66;99.99
13496;DHT22;6820;49.374;8.452;2023-05-18T21:14:56;16.62;99.99
13496;DHT22;6820;49.374;8.452;2023-05-18T21:18:58;16.62;99.99
13496;DHT22;6820;49.374;8.452;2023-05-18T21:22:59;16.55;99.99
13496;DHT22;6820;49.374;8.452;2023-05-18T21:27:01;16.48;99.99
13496;DHT22;6820;49.374;8.452;2023-05-18T21:31:03;16.40;99.99
13496;DHT22;6820;49.374;8.452;2023-05-18T21:35:06;16.30;99.99
13496;DHT22;6820;49.374;8.452;2023-05-18T21:39:08;16.27;99.99
13496;DHT22;6820;49.374;8.452;2023-05-18T21:43:09;16.22;99.99
13496;DHT22;6820;49.374;8.452;2023-05-18T21:47:12;16.16;99.99
13496;DHT22;6820;49.374;8.452;2023-05-18T21:51:14;16.10;99.99
13496;DHT22;6820;49.374;8.452;2023-05-18T21:55:16;16.06;99.99
13496;DHT22;6820;49.374;8.452;2023-05-18T21:59:18;16.01;99.99
13496;DHT22;6820;49.374;8.452;2023-05-18T22:03:20;15.99;99.99
13496;DHT22;6820;49.374;8.452;2023-05-18T22:07:24;15.91;99.99
13496;DHT22;6820;49.374;8.452;2023-05-18T22:11:26;15.88;99.99
13496;DHT22;6820;49.374;8.452;2023-05-18T22:15:27;15.84;99.99
13496;DHT22;6820;49.374;8.452;2023-05-18T22:19:29;15.80;99.99
13496;DHT22;6820;49.374;8.452;2023-05-18T22:23:31;15.77;99.99
13496;DHT22;6820;49.374;8.452;2023-05-18T22:27:32;15.71;99.99
13496;DHT22;6820;49.374;8.452;2023-05-18T22:31:36;15.73;99.99
13496;DHT22;6820;49.374;8.452;2023-05-18T22:35:38;15.71;99.99
13496;DHT22;6820;49.374;8.452;2023-05-18T22:39:40;15.70;99.99
13496;DHT22;6820;49.374;8.452;2023-05-18T22:43:41;15.64;99.99
13496;DHT22;6820;49.374;8.452;2023-05-18T22:47:43;15.56;99.99
13496;DHT22;6820;49.374;8.452;2023-05-18T22:51:45;15.46;99.99
13496;DHT22;6820;49.374;8.452;2023-05-18T22:55:47;15.33;99.99
13496;DHT22;6820;49.374;8.452;2023-05-18T22:59:48;15.18;99.99
13496;DHT22;6820;49.374;8.452;2023-05-18T23:03:50;15.04;99.99
13496;DHT22;6820;49.374;8.452;2023-05-18T23:07:52;15.07;99.99
13496;DHT22;6820;49.374;8.452;2023-05-18T23:11:53;14.98;99.99
13496;DHT22;6820;49.374;8.452;2023-05-18T23:15:56;14.90;99.99
13496;DHT22;6820;49.374;8.452;2023-05-18T23:20:01;14.83;99.99
13496;DHT22;6820;49.374;8.452;2023-05-18T23:24:08;14.75;99.99
13496;DHT22;6820;49.374;8.452;2023-05-18T23:28:12;14.69;99.99
13496;DHT22;6820;49.374;8.452;2023-05-18T23:32:14;14.67;99.99
13496;DHT22;6820;49.374;8.452;2023-05-18T23:36:16;14.71;99.99
13496;DHT22;6820;49.374;8.452;2023-05-18T23:40:20;14.63;99.99
13496;DHT22;6820;49.374;8.452;2023-05-18T23:44:23;14.41;99.99
13496;DHT22;6820;49.374;8.452;2023-05-18T23:48:25;14.31;99.99
13496;DHT22;6820;49.374;8.452;2023-05-18T23:52:28;14.17;99.99
13496;DHT22;6820;49.374;8.452;2023-05-18T23:56:32;14.08;99.99
